Gresham, Nebraska
Current Conditions -  °F | °C
As of 6:15 AM on Friday 21 Nov 2014 (Local Time) from KJYR Reporting Station
Clear Clear  
Wind Chill:   Ceiling: Unl
Heat Index: 18°   Visibility: 10mi
Dew Point: 16°   Wind: 8mph
Humidity: 93%   Direction: 180°S
Pressure: 30.14"   Gusts: NA
Location:  41.03°N, 97.4°W
Report Text: KJYR 211215Z AUTO 18007KT 10SM CLR M08/M09 A3014 RMK AO2
Loading
Personal Weather Stations






























Interactive Weather Map New forecast layout! Learn more

10-Day Weather Forecast

Advertisements
Track Severe Weather on mobile